Terminal Aerodrome Forecast
Issued by NWS

Home | Current Version | Previous Version | Text Only | Print | Product List | Glossary On
Versions: 1 2 3 4 5 6 7 8 9 10 11 12 13 14 15 16
000
FTUS42 TJSJ 311729
TAFJSJ
TAF
TJSJ 311729Z 3118/0118 07017G23KT P6SM FEW030 SCT080
     FM312200 09010KT P6SM SCT030
     FM011430 07015KT P6SM FEW030
     FM011700 07015G25KT P6SM VCSH SCT025 SCT050=

USA.gov is the U.S. government's official web portal to all federal, state and local government web resources and services.